Main page
METAR-TAF:

METAR-TAF

Airports :

RoAF 71st Air Base

Câmpia Turzii, Romania

latitude: 46-30-12N, longitude: 023-53-07E, elevation: 324 m

Current weather observation

The report was made 56 minutes ago, at 13:00 UTC
Wind 8 kt from the North/Northwest
Temperature 15°C
Humidity 33%
Pressure 1009 hPa
Visibility 10 km or more
Few clouds at a height of 8000 ft

METAR: LRCT 211300Z 34008KT 9999 FEW080 15/M01 Q1009 BLU BLU

Time: 16:56 (13:56 UTC)


TAF: missing

Weather observations and forecasts of more than 4000 airports (METAR and TAF reports).

The available stations are represented by yellow and red dots on the map.

Hover mouse over dot to see the name of the station.

Then click to see weather observations and forecasts.

To change the map : click on the green buttons with a black cross to zoom in, on the green button with a dash to zoom out, or on the green arrows for adjacent maps.


METAR-TAF: